Honeyford, North Dakota
Current Conditions -  °F | °C
As of 9:58 AM on Saturday 25 Oct 2014 (Local Time) from KRDR Reporting Station
Clear Clear  
Wind Chill: 44°   Ceiling: Unl
Heat Index: 49°   Visibility: 10mi
Dew Point: 33°   Wind: 10mph
Humidity: 54%   Direction: 320°NW
Pressure: 30.07"   Gusts: NA
Location:  48.1078°N, 97.4492°W
Report Text: KRDR 251458Z AUTO 32009KT 10SM CLR 09/00 A3007 RMK AO2 SLP192 T00920004 52012
Loading
Personal Weather Stations






























Interactive Weather Map
Tropical Storm Tracking
New forecast layout! Learn more

10-Day Weather Forecast

Advertisements
Track Severe Weather on mobile